Time;durP1;ratioP1;P1;durP2;ratioP2;P2;SDS_P1;SDS_P2;PMS_P1;PMS_P2;Temp;Humidity;BMP_temperature;BMP_pressure;BME280_temperature;BME280_humidity;BME280_pressure;Samples;Min_cycle;Max_cycle;Signal;HPM_P1;HPM_P2
2023/09/04 00:02:13;;;;;;;5.55;2.47;;;;;;;26.48;38.19;100336.00;4483504;32;33296;-73
2023/09/04 00:04:41;;;;;;;4.72;2.60;;;;;;;26.48;38.12;100331.34;4483355;32;33508;-72
2023/09/04 00:07:08;;;;;;;4.32;2.78;;;;;;;26.51;38.13;100330.06;4483636;32;33621;-73
2023/09/04 00:09:37;;;;;;;4.30;2.70;;;;;;;26.52;37.95;100337.19;4483371;32;34634;-73
2023/09/04 00:12:05;;;;;;;5.13;2.63;;;;;;;26.50;38.07;100331.97;4483355;32;33596;-73
2023/09/04 00:14:33;;;;;;;3.80;2.72;;;;;;;26.50;38.11;100339.34;4482096;32;33761;-73
2023/09/04 00:17:00;;;;;;;7.47;2.80;;;;;;;26.50;37.98;100340.16;4483439;32;34793;-73
2023/09/04 00:19:28;;;;;;;6.28;2.85;;;;;;;26.48;37.97;100338.72;4483224;32;34681;-74
2023/09/04 00:21:56;;;;;;;6.15;3.00;;;;;;;26.47;38.07;100339.78;4483357;32;34064;-74
2023/09/04 00:24:23;;;;;;;5.65;2.97;;;;;;;26.47;37.97;100351.56;4483235;32;33978;-73
2023/09/04 00:26:51;;;;;;;10.52;3.12;;;;;;;26.46;37.89;100344.44;4483096;32;33618;-73
2023/09/04 00:29:19;;;;;;;4.22;2.60;;;;;;;26.45;38.04;100342.78;4482993;32;34485;-73
2023/09/04 00:31:46;;;;;;;4.68;3.00;;;;;;;26.44;38.10;100333.75;4483246;32;33245;-74
2023/09/04 00:34:14;;;;;;;4.15;2.72;;;;;;;26.43;38.03;100340.25;4482846;32;34761;-73
2023/09/04 00:36:42;;;;;;;5.50;2.72;;;;;;;26.43;37.82;100347.62;4483020;32;34720;-73
2023/09/04 00:39:09;;;;;;;5.20;2.62;;;;;;;26.40;37.79;100350.81;4481864;32;33636;-74
2023/09/04 00:41:37;;;;;;;5.25;2.70;;;;;;;26.39;37.65;100355.47;4483212;32;33443;-74
2023/09/04 00:44:05;;;;;;;4.82;3.00;;;;;;;26.39;37.92;100349.13;4485158;32;33528;-73
2023/09/04 00:46:32;;;;;;;6.85;2.50;;;;;;;26.37;38.10;100346.63;4485357;32;34797;-73
2023/09/04 00:49:01;;;;;;;8.82;3.00;;;;;;;26.38;38.11;100347.47;4483932;32;33804;-73
2023/09/04 00:51:29;;;;;;;6.62;2.70;;;;;;;26.36;38.06;100342.25;4485220;32;34282;-73
2023/09/04 00:53:56;;;;;;;4.87;2.60;;;;;;;26.36;38.09;100344.97;4483824;32;34992;-73
2023/09/04 00:56:24;;;;;;;4.12;2.60;;;;;;;26.35;38.07;100343.31;4484833;32;34128;-73
2023/09/04 00:58:52;;;;;;;4.87;2.75;;;;;;;26.36;38.10;100336.78;4483980;32;33597;-72
2023/09/04 01:01:20;;;;;;;5.28;2.60;;;;;;;26.35;38.10;100328.81;4471022;32;33385;-72
2023/09/04 01:03:51;;;;;;;5.55;2.55;;;;;;;26.34;38.11;100330.69;4485079;32;33169;-74
2023/09/04 01:06:18;;;;;;;4.50;2.67;;;;;;;26.34;37.97;100332.59;4485253;32;33678;-74
2023/09/04 01:08:46;;;;;;;3.92;2.40;;;;;;;26.34;38.02;100329.84;4483562;32;33034;-74
2023/09/04 01:11:35;;;;;;;4.18;2.60;;;;;;;26.33;38.01;100328.19;4483589;32;33484;-73
2023/09/04 01:14:05;;;;;;;4.97;2.60;;;;;;;26.34;38.12;100313.44;4483660;32;33679;-72
2023/09/04 01:16:34;;;;;;;4.87;2.70;;;;;;;26.31;38.03;100314.75;4483672;32;33591;-73
2023/09/04 01:19:01;;;;;;;4.90;2.60;;;;;;;26.31;37.96;100311.19;4483761;32;34578;-74
2023/09/04 01:21:29;;;;;;;5.70;3.20;;;;;;;26.30;37.72;100323.16;4483645;32;34182;-73
2023/09/04 01:23:57;;;;;;;6.07;2.80;;;;;;;26.27;37.65;100327.22;4485023;32;33450;-73
2023/09/04 01:26:26;;;;;;;5.62;2.90;;;;;;;26.25;37.83;100323.03;4484883;32;33517;-73
2023/09/04 01:29:09;;;;;;;4.07;2.62;;;;;;;26.25;37.87;100334.81;4483300;32;34632;-73
2023/09/04 01:32:00;;;;;;;5.30;2.83;;;;;;;26.26;37.89;100332.94;4483601;32;32998;-74
2023/09/04 01:34:30;;;;;;;6.03;2.87;;;;;;;26.27;37.87;100343.62;4484659;32;33554;-72
2023/09/04 01:36:59;;;;;;;4.62;2.67;;;;;;;26.23;38.07;100336.13;4484860;32;33844;-74
2023/09/04 01:39:26;;;;;;;5.25;3.05;;;;;;;26.22;37.99;100331.72;4483361;32;33506;-72
2023/09/04 01:41:54;;;;;;;4.15;2.65;;;;;;;26.22;38.03;100332.56;4470569;32;33714;-74
2023/09/04 01:44:22;;;;;;;4.80;2.80;;;;;;;26.22;38.08;100337.19;4483511;32;34772;-72
2023/09/04 01:46:50;;;;;;;6.57;2.80;;;;;;;26.21;38.11;100333.62;4484316;32;33795;-72
2023/09/04 01:49:18;;;;;;;3.97;2.67;;;;;;;26.19;37.99;100342.06;4484494;32;34922;-73
2023/09/04 01:51:46;;;;;;;5.32;2.90;;;;;;;26.20;37.88;100349.19;4484651;32;33548;-74
2023/09/04 01:54:13;;;;;;;5.22;2.85;;;;;;;26.18;38.02;100345.84;4483890;32;33637;-73
2023/09/04 01:56:41;;;;;;;7.03;2.80;;;;;;;26.13;38.10;100353.94;4484551;32;34496;-74
2023/09/04 01:59:08;;;;;;;5.18;2.72;;;;;;;26.06;38.19;100353.16;4484638;32;33748;-70
2023/09/04 02:01:38;;;;;;;4.28;2.50;;;;;;;26.09;38.14;100355.44;4484497;32;32939;-74
2023/09/04 02:04:06;;;;;;;5.80;2.83;;;;;;;26.12;38.10;100348.69;4484654;32;34565;-74
2023/09/04 02:06:33;;;;;;;4.55;2.60;;;;;;;26.13;37.92;100350.34;4484552;32;33604;-73
2023/09/04 02:09:01;;;;;;;4.82;3.00;;;;;;;26.07;38.00;100349.41;4484379;32;33432;-74
2023/09/04 02:11:28;;;;;;;4.60;2.60;;;;;;;26.02;38.06;100342.91;4484453;32;33252;-73
2023/09/04 02:13:56;;;;;;;5.05;2.95;;;;;;;25.94;38.00;100347.66;4484365;32;34647;-74
2023/09/04 02:16:23;;;;;;;4.47;2.55;;;;;;;25.95;37.95;100360.25;4484340;32;33995;-74
2023/09/04 02:18:52;;;;;;;4.62;2.67;;;;;;;25.84;38.24;100350.09;4484495;32;33698;-73
2023/09/04 02:21:20;;;;;;;4.22;2.37;;;;;;;25.81;38.40;100347.00;4484523;32;34134;-74
2023/09/04 02:23:47;;;;;;;6.43;2.90;;;;;;;25.79;38.58;100339.03;4483252;32;34477;-72
2023/09/04 02:26:15;;;;;;;5.25;2.97;;;;;;;25.77;38.35;100346.59;4484414;32;33734;-73
2023/09/04 02:28:45;;;;;;;4.60;2.87;;;;;;;25.75;38.48;100354.19;4484297;32;33672;-73
2023/09/04 02:31:13;;;;;;;6.25;2.70;;;;;;;25.70;38.55;100349.41;4484148;32;33449;-72
2023/09/04 02:33:41;;;;;;;7.03;3.30;;;;;;;25.68;38.53;100351.50;4484437;32;34073;-73
2023/09/04 02:36:08;;;;;;;4.00;2.30;;;;;;;25.67;38.76;100358.03;4484322;32;33929;-73
2023/09/04 02:38:35;;;;;;;5.53;2.75;;;;;;;25.69;38.80;100363.28;4484035;32;33787;-73
2023/09/04 02:41:04;;;;;;;5.65;2.60;;;;;;;25.70;38.77;100354.88;4484268;32;33243;-74
2023/09/04 02:43:32;;;;;;;3.33;2.30;;;;;;;25.71;38.76;100355.69;4483119;32;34364;-73
2023/09/04 02:45:59;;;;;;;5.12;2.78;;;;;;;25.68;38.79;100356.97;4484422;32;33781;-73
2023/09/04 02:48:27;;;;;;;4.32;2.92;;;;;;;25.70;38.64;100359.50;4484240;32;34690;-73
2023/09/04 02:50:58;;;;;;;4.93;2.83;;;;;;;25.69;38.72;100364.12;4484317;32;33355;-73
2023/09/04 02:53:27;;;;;;;6.87;3.03;;;;;;;25.70;38.72;100367.69;4483348;32;34014;-73
2023/09/04 02:55:54;;;;;;;4.55;2.62;;;;;;;25.71;38.86;100366.63;4484239;32;33612;-72
2023/09/04 02:58:22;;;;;;;4.72;2.83;;;;;;;25.72;38.72;100368.28;4468455;32;34195;-72
2023/09/04 03:00:50;;;;;;;4.32;2.67;;;;;;;25.74;38.65;100365.31;4468531;32;33324;-73
2023/09/04 03:03:19;;;;;;;4.45;2.85;;;;;;;25.71;38.68;100363.91;4468434;32;33845;-72
2023/09/04 03:05:47;;;;;;;5.93;2.83;;;;;;;25.72;38.64;100360.09;4467034;32;33909;-73
2023/09/04 03:08:15;;;;;;;6.90;2.78;;;;;;;25.70;38.75;100354.03;4468646;32;33683;-73
2023/09/04 03:10:43;;;;;;;6.35;3.15;;;;;;;25.68;38.58;100356.97;4467130;32;34073;-73
2023/09/04 03:13:11;;;;;;;5.37;2.65;;;;;;;25.64;38.65;100363.97;4468260;32;34827;-73
2023/09/04 03:15:38;;;;;;;5.45;2.90;;;;;;;25.61;38.63;100356.22;4468752;32;33720;-74
2023/09/04 03:18:06;;;;;;;5.15;3.08;;;;;;;25.60;38.66;100362.78;4467394;32;33950;-73
2023/09/04 03:20:34;;;;;;;5.00;2.83;;;;;;;25.60;38.74;100364.62;4468175;32;33511;-74
2023/09/04 03:23:03;;;;;;;6.28;2.90;;;;;;;25.61;38.72;100366.34;4468588;32;34908;-72
2023/09/04 03:25:32;;;;;;;5.12;3.12;;;;;;;25.61;38.62;100372.63;4468356;32;34857;-74
2023/09/04 03:28:00;;;;;;;5.20;3.03;;;;;;;25.60;38.67;100378.31;4468075;32;33756;-72
2023/09/04 03:30:27;;;;;;;4.28;2.78;;;;;;;25.61;38.69;100383.56;4468608;32;34424;-73
2023/09/04 03:32:55;;;;;;;4.07;2.80;;;;;;;25.61;38.63;100375.38;4454326;32;34792;-73
2023/09/04 03:35:23;;;;;;;4.28;2.62;;;;;;;25.60;38.80;100376.44;4468061;32;34482;-73
2023/09/04 03:37:51;;;;;;;4.68;2.80;;;;;;;25.61;38.85;100371.81;4468470;32;34650;-73
2023/09/04 03:40:20;;;;;;;5.80;3.40;;;;;;;25.62;38.73;100368.81;4466796;32;33489;-74
2023/09/04 03:42:50;;;;;;;4.90;2.60;;;;;;;25.61;38.69;100374.53;4468069;32;33841;-71
2023/09/04 03:45:19;;;;;;;5.97;3.55;;;;;;;25.60;38.76;100372.84;4466922;32;33561;-73
2023/09/04 03:47:46;;;;;;;5.15;2.65;;;;;;;25.60;38.70;100360.03;4466542;32;34703;-72
2023/09/04 03:50:14;;;;;;;4.62;3.15;;;;;;;25.59;38.72;100361.06;4466770;32;34353;-73
2023/09/04 03:52:42;;;;;;;4.75;2.62;;;;;;;25.58;38.71;100374.97;4467950;32;34070;-73
2023/09/04 03:55:10;;;;;;;4.80;2.70;;;;;;;25.56;38.90;100374.38;4468092;32;33910;-74
2023/09/04 03:57:39;;;;;;;5.25;3.10;;;;;;;25.55;38.82;100381.72;4479049;32;34327;-73
2023/09/04 04:00:19;;;;;;;3.95;2.60;;;;;;;25.55;38.84;100378.16;4483685;32;33233;-74
2023/09/04 04:02:47;;;;;;;5.45;3.10;;;;;;;25.53;38.82;100383.84;4483470;32;33904;-73
2023/09/04 04:05:16;;;;;;;4.28;2.75;;;;;;;25.53;38.82;100374.81;4483553;32;33843;-74
2023/09/04 04:07:44;;;;;;;6.35;2.90;;;;;;;25.51;38.96;100376.94;4482316;32;33884;-73
2023/09/04 04:10:12;;;;;;;5.05;3.00;;;;;;;25.50;38.88;100384.28;4483223;32;34072;-71
2023/09/04 04:12:39;;;;;;;5.90;2.90;;;;;;;25.56;38.83;100380.69;4483415;32;34685;-72
2023/09/04 04:15:08;;;;;;;5.05;2.78;;;;;;;25.62;38.74;100381.66;4482378;32;33634;-73
2023/09/04 04:17:36;;;;;;;4.93;3.35;;;;;;;25.64;38.74;100382.25;4484259;32;34567;-71
2023/09/04 04:20:11;;;;;;;6.32;3.20;;;;;;;25.66;38.69;100386.44;4458349;32;33713;-74
2023/09/04 04:22:43;;;;;;;6.20;3.03;;;;;;;25.66;38.69;100386.44;4485215;32;33620;-73
2023/09/04 04:25:10;;;;;;;6.47;2.90;;;;;;;25.67;38.88;100388.09;4485285;32;33501;-74
2023/09/04 04:27:38;;;;;;;8.23;3.22;;;;;;;25.69;38.84;100394.19;4485132;32;34739;-73
2023/09/04 04:30:08;;;;;;;5.90;2.92;;;;;;;25.70;38.98;100387.66;4485442;32;33559;-74
2023/09/04 04:32:37;;;;;;;4.75;2.90;;;;;;;25.73;38.91;100394.56;4485253;32;34686;-73
2023/09/04 04:35:05;;;;;;;4.80;2.67;;;;;;;25.76;38.86;100393.31;4484104;32;33587;-73
2023/09/04 04:37:33;;;;;;;5.68;3.30;;;;;;;25.74;38.99;100395.38;4484113;32;34256;-73
2023/09/04 04:40:03;;;;;;;8.77;2.60;;;;;;;25.75;38.88;100397.09;4485244;32;33432;-73
2023/09/04 04:42:32;;;;;;;6.07;3.20;;;;;;;25.76;38.90;100404.25;4485317;32;34606;-73
2023/09/04 04:45:02;;;;;;;7.47;2.97;;;;;;;25.75;38.91;100411.59;4485162;32;33896;-73
2023/09/04 04:47:29;;;;;;;5.68;2.78;;;;;;;25.76;38.91;100412.44;4485319;32;33533;-73
2023/09/04 04:49:57;;;;;;;5.15;2.70;;;;;;;25.76;38.97;100417.91;4485305;32;33317;-73
2023/09/04 04:52:25;;;;;;;7.50;3.20;;;;;;;25.77;39.02;100416.84;4484983;32;34028;-74
2023/09/04 04:54:52;;;;;;;5.60;2.92;;;;;;;25.77;39.01;100416.84;4485120;32;34885;-71
2023/09/04 04:57:20;;;;;;;6.90;3.67;;;;;;;25.77;38.99;100414.13;4483545;32;32688;-73
2023/09/04 04:59:48;;;;;;;4.80;2.53;;;;;;;25.77;38.99;100420.41;4485379;32;33119;-74
2023/09/04 05:02:20;;;;;;;5.43;3.10;;;;;;;25.77;38.99;100428.59;4485342;32;33882;-73
2023/09/04 05:04:49;;;;;;;5.47;3.47;;;;;;;25.77;39.03;100430.50;4483664;32;33877;-72
2023/09/04 05:07:18;;;;;;;5.45;3.33;;;;;;;25.77;39.06;100425.03;4485223;32;33937;-73
2023/09/04 05:09:50;;;;;;;4.53;2.95;;;;;;;25.76;39.07;100432.41;4483830;32;34204;-73
2023/09/04 05:12:19;;;;;;;7.00;3.75;;;;;;;25.77;39.20;100425.03;4483915;32;33655;-71
2023/09/04 05:14:47;;;;;;;8.30;3.28;;;;;;;25.78;39.11;100432.19;4484953;32;33915;-72
2023/09/04 05:17:14;;;;;;;8.45;3.17;;;;;;;25.77;39.29;100427.78;4485200;32;34649;-73
2023/09/04 05:19:46;;;;;;;4.50;2.90;;;;;;;25.77;39.24;100430.50;4483817;32;33662;-73
2023/09/04 05:22:14;;;;;;;7.32;3.50;;;;;;;25.78;39.22;100429.44;4484936;32;34743;-71
2023/09/04 05:24:42;;;;;;;6.37;3.50;;;;;;;25.78;39.19;100437.66;4484743;32;34486;-73
2023/09/04 05:27:10;;;;;;;6.28;3.22;;;;;;;25.78;39.34;100438.47;4484776;32;33979;-73
2023/09/04 05:29:37;;;;;;;4.37;2.80;;;;;;;25.79;39.27;100436.59;4484017;32;34348;-73
2023/09/04 05:32:05;;;;;;;4.35;2.70;;;;;;;25.78;39.20;100443.09;4484022;32;35334;-70
2023/09/04 05:34:34;;;;;;;5.03;2.78;;;;;;;25.78;39.30;100440.37;4484752;32;33870;-73
2023/09/04 05:37:02;;;;;;;4.95;2.97;;;;;;;25.78;39.25;100443.09;4484966;32;33651;-70
2023/09/04 05:39:29;;;;;;;5.05;3.25;;;;;;;25.77;39.26;100444.19;4484580;32;33172;-67
2023/09/04 05:41:57;;;;;;;4.60;2.97;;;;;;;25.77;39.32;100435.97;4484921;32;34854;-73
2023/09/04 05:44:25;;;;;;;6.62;3.10;;;;;;;25.79;39.37;100442.06;4484697;32;34073;-69
2023/09/04 05:46:53;;;;;;;6.40;3.10;;;;;;;25.78;39.42;100438.47;4484237;32;33378;-69
2023/09/04 05:49:21;;;;;;;5.80;3.10;;;;;;;25.78;39.49;100443.09;4483395;32;32807;-71
2023/09/04 05:51:48;;;;;;;4.60;3.10;;;;;;;25.79;39.40;100444.81;4484483;32;33968;-73
2023/09/04 05:54:16;;;;;;;6.20;2.92;;;;;;;25.78;39.43;100446.69;4484518;32;34706;-68
2023/09/04 05:56:45;;;;;;;4.55;2.75;;;;;;;25.78;39.36;100446.69;4483548;32;34207;-73
2023/09/04 05:59:15;;;;;;;4.95;3.00;;;;;;;25.78;39.35;100440.37;4484821;32;34504;-72
2023/09/04 06:01:42;;;;;;;5.15;2.83;;;;;;;25.78;39.43;100448.56;4483111;32;34085;-67
2023/09/04 06:04:11;;;;;;;5.45;3.20;;;;;;;25.77;39.47;100442.28;4484568;32;33545;-71
2023/09/04 06:06:38;;;;;;;5.80;2.92;;;;;;;25.77;39.50;100446.91;4483432;32;33651;-73
2023/09/04 06:09:07;;;;;;;5.15;2.75;;;;;;;25.77;39.53;100441.44;4484460;32;33826;-68
2023/09/04 06:11:36;;;;;;;5.80;3.63;;;;;;;25.76;39.58;100437.88;4484384;32;34085;-67
2023/09/04 06:14:03;;;;;;;8.00;3.42;;;;;;;25.77;39.59;100441.44;4484525;32;34644;-66
2023/09/04 06:16:32;;;;;;;10.00;3.60;;;;;;;25.75;39.62;100452.59;4483600;32;34327;-66
2023/09/04 06:19:00;;;;;;;12.50;3.72;;;;;;;25.75;39.75;100449.03;4470603;32;33163;-68
2023/09/04 06:21:28;;;;;;;15.52;4.12;;;;;;;25.76;39.77;100448.81;4483582;32;34802;-72
2023/09/04 06:23:56;;;;;;;8.18;3.67;;;;;;;25.75;39.94;100449.03;4482652;32;33536;-69
2023/09/04 06:26:23;;;;;;;6.10;3.15;;;;;;;25.75;39.98;100444.37;4484313;32;34267;-74
2023/09/04 06:28:51;;;;;;;7.25;3.15;;;;;;;25.77;39.93;100446.91;4484276;32;33651;-74
2023/09/04 06:31:18;;;;;;;7.28;3.58;;;;;;;25.77;39.93;100449.66;4484253;32;34174;-68
2023/09/04 06:33:47;;;;;;;8.25;3.30;;;;;;;25.77;39.93;100446.91;4481600;32;34137;-70
2023/09/04 06:36:15;;;;;;;5.55;2.83;;;;;;;25.76;39.90;100446.09;4468119;32;34167;-67
2023/09/04 06:38:42;;;;;;;5.65;3.33;;;;;;;25.76;39.91;100448.81;4482137;32;34748;-70
2023/09/04 06:41:10;;;;;;;6.37;3.47;;;;;;;25.76;39.99;100446.09;4482146;32;34927;-70
2023/09/04 06:43:37;;;;;;;7.65;3.05;;;;;;;25.79;40.04;100450.28;4482153;32;33757;-68
2023/09/04 06:46:05;;;;;;;6.30;3.30;;;;;;;25.79;40.06;100455.75;4481274;32;33718;-72
2023/09/04 06:48:33;;;;;;;6.70;3.40;;;;;;;25.79;40.09;100459.31;4482345;32;33097;-67
2023/09/04 06:51:00;;;;;;;6.57;3.03;;;;;;;25.79;40.12;100456.56;4482250;32;33941;-72
2023/09/04 06:53:28;;;;;;;5.87;2.75;;;;;;;25.80;40.06;100462.88;4482104;32;33526;-68
2023/09/04 06:55:56;;;;;;;6.47;3.30;;;;;;;25.80;40.05;100471.91;4482702;32;33757;-67
2023/09/04 06:58:26;;;;;;;6.72;3.05;;;;;;;25.81;40.05;100470.00;4482970;32;33135;-72
2023/09/04 07:00:53;;;;;;;5.43;2.97;;;;;;;25.82;40.07;100474.41;4483100;32;33899;-69
2023/09/04 07:03:22;;;;;;;6.53;3.15;;;;;;;25.81;40.10;100468.09;4484088;32;33716;-68
2023/09/04 07:05:50;;;;;;;5.97;3.20;;;;;;;25.81;40.19;100461.81;4469881;32;33741;-69
2023/09/04 07:08:17;;;;;;;6.07;3.60;;;;;;;25.82;40.20;100460.72;4484084;32;33494;-73
2023/09/04 07:10:47;;;;;;;4.60;2.78;;;;;;;25.83;40.21;100467.87;4482240;32;33979;-67
2023/09/04 07:13:15;;;;;;;6.00;2.77;;;;;;;25.82;40.29;100474.41;4482726;32;33582;-68
2023/09/04 07:15:43;;;;;;;5.07;3.17;;;;;;;25.84;40.27;100475.88;4481955;32;33895;-69
2023/09/04 07:18:11;;;;;;;5.40;3.30;;;;;;;25.85;40.30;100482.16;4484001;32;34070;-68
2023/09/04 07:20:38;;;;;;;7.25;3.22;;;;;;;25.84;40.36;100488.69;4483862;32;34120;-68
2023/09/04 07:23:06;;;;;;;8.20;3.05;;;;;;;25.85;40.39;100485.72;4484078;32;34625;-68
2023/09/04 07:25:47;;;;;;;7.50;3.40;;;;;;;25.86;40.42;100494.75;4483796;32;34732;-67
2023/09/04 07:28:15;;;;;;;5.50;3.10;;;;;;;25.87;40.43;100496.44;4483981;32;34326;-67
2023/09/04 07:30:42;;;;;;;5.60;2.78;;;;;;;25.88;40.48;100492.62;4483917;32;34280;-70
2023/09/04 07:33:10;;;;;;;5.37;3.20;;;;;;;25.87;40.52;100496.44;4483613;32;33694;-68
2023/09/04 07:35:38;;;;;;;4.68;2.90;;;;;;;25.88;40.54;100489.88;4482515;32;32846;-73
2023/09/04 07:38:05;;;;;;;5.68;3.17;;;;;;;25.89;40.56;100494.31;4484031;32;33321;-67
2023/09/04 07:40:34;;;;;;;5.50;2.92;;;;;;;25.89;40.56;100492.41;4483725;32;34281;-73
2023/09/04 07:43:01;;;;;;;6.25;2.67;;;;;;;25.90;40.46;100487.78;4483978;32;33472;-67
2023/09/04 07:45:29;;;;;;;5.85;2.90;;;;;;;25.91;40.50;100483.97;4483989;32;34475;-68
2023/09/04 07:47:57;;;;;;;5.60;2.87;;;;;;;25.92;40.44;100482.91;4483499;32;34088;-67
2023/09/04 07:50:24;;;;;;;6.10;2.92;;;;;;;25.92;40.46;100480.19;4483748;32;34225;-68
2023/09/04 07:52:52;;;;;;;6.70;2.62;;;;;;;25.94;40.49;100486.28;4482788;32;34797;-68
2023/09/04 07:55:19;;;;;;;6.05;3.15;;;;;;;25.93;40.43;100493.63;4482249;32;33395;-69
2023/09/04 07:57:47;;;;;;;6.00;3.17;;;;;;;25.95;40.48;100487.94;4483632;32;33115;-67
2023/09/04 08:00:21;;;;;;;4.50;2.80;;;;;;;25.94;40.38;100484.37;4483509;32;34137;-69
2023/09/04 08:02:50;;;;;;;4.93;2.95;;;;;;;25.95;40.32;100482.47;4483414;32;33909;-68
2023/09/04 08:05:17;;;;;;;4.62;2.58;;;;;;;25.95;40.30;100479.72;4483600;32;34089;-69
2023/09/04 08:07:45;;;;;;;5.65;2.80;;;;;;;25.97;40.37;100483.06;4483903;32;33079;-70
2023/09/04 08:10:13;;;;;;;5.72;2.70;;;;;;;25.96;39.97;100484.13;4483531;32;33864;-72
2023/09/04 08:12:41;;;;;;;6.03;2.72;;;;;;;25.96;39.98;100484.13;4483347;32;34790;-68
2023/09/04 08:15:10;;;;;;;4.22;2.87;;;;;;;25.97;39.80;100484.97;4482443;32;33983;-75
2023/09/04 08:17:40;;;;;;;6.80;3.08;;;;;;;25.92;39.91;100491.13;4483395;32;33361;-70
2023/09/04 08:20:09;;;;;;;5.57;2.80;;;;;;;25.88;39.79;100492.62;4482373;32;34105;-73
2023/09/04 08:22:36;;;;;;;6.05;2.85;;;;;;;25.86;39.49;100492.84;4483262;32;34798;-72
2023/09/04 08:25:04;;;;;;;3.28;2.22;;;;;;;25.84;39.17;100500.47;4483189;32;33784;-72
2023/09/04 08:27:32;;;;;;;4.87;2.60;;;;;;;25.83;38.29;100490.56;4483232;32;33829;-73
2023/09/04 08:29:59;;;;;;;5.47;2.80;;;;;;;25.81;38.27;100486.41;4483166;32;33929;-70
2023/09/04 08:32:27;;;;;;;4.78;2.75;;;;;;;25.80;38.28;100495.69;4481030;31;34024;-68
2023/09/04 08:34:55;;;;;;;4.40;2.75;;;;;;;25.79;38.13;100485.81;4479184;31;34626;-67
2023/09/04 08:37:23;;;;;;;4.15;2.45;;;;;;;25.79;37.79;100496.75;4476727;32;33436;-74
2023/09/04 08:39:51;;;;;;;4.70;2.70;;;;;;;25.80;36.30;100487.47;4480138;32;33496;-67
2023/09/04 08:42:18;;;;;;;4.07;2.40;;;;;;;25.77;36.34;100488.75;4482870;32;33496;-74
2023/09/04 08:44:47;;;;;;;4.20;2.50;;;;;;;25.84;36.37;100485.97;4477272;32;34597;-72
2023/09/04 08:47:15;;;;;;;3.72;2.30;;;;;;;25.87;36.13;100489.06;4465984;32;33455;-70
2023/09/04 08:49:43;;;;;;;3.70;2.37;;;;;;;25.91;36.11;100494.91;4476649;32;35746;-73
2023/09/04 08:52:10;;;;;;;3.95;2.30;;;;;;;25.94;35.93;100500.78;4467811;32;34734;-72
2023/09/04 08:54:38;;;;;;;4.10;2.47;;;;;;;25.88;35.96;100488.03;4465959;32;34583;-69
2023/09/04 08:57:06;;;;;;;4.25;2.20;;;;;;;25.85;36.02;100487.63;4473504;32;33422;-68
2023/09/04 08:59:34;;;;;;;4.32;2.00;;;;;;;25.84;36.43;100483.22;4477792;32;33864;-67
2023/09/04 09:02:04;;;;;;;8.25;2.28;;;;;;;25.83;36.43;100487.84;4465826;32;33008;-67
2023/09/04 09:04:32;;;;;;;5.05;2.17;;;;;;;25.82;36.51;100488.06;4469110;32;34723;-67
2023/09/04 09:07:01;;;;;;;3.90;2.20;;;;;;;25.82;36.20;100482.59;4469192;32;33308;-67
2023/09/04 09:09:29;;;;;;;4.57;2.33;;;;;;;25.82;35.65;100482.59;4469322;32;33874;-67
2023/09/04 09:11:57;;;;;;;3.97;2.30;;;;;;;25.82;35.28;100480.69;4468107;32;34010;-68
2023/09/04 09:14:28;;;;;;;5.32;2.35;;;;;;;25.81;35.43;100489.13;4469030;32;34580;-66
2023/09/04 09:17:05;;;;;;;3.72;2.00;;;;;;;25.81;34.97;100483.66;4455478;32;34633;-66
2023/09/04 09:19:34;;;;;;;4.40;1.85;;;;;;;25.82;35.11;100485.34;4466816;31;33647;-71
2023/09/04 09:22:12;;;;;;;3.65;2.00;;;;;;;25.81;35.09;100483.66;4468946;32;33993;-67
2023/09/04 09:24:50;;;;;;;5.18;2.10;;;;;;;25.83;35.30;100467.87;4468995;32;33948;-67
2023/09/04 09:27:19;;;;;;;3.83;2.30;;;;;;;25.83;35.17;100489.72;4472275;32;33602;-67
2023/09/04 09:29:49;;;;;;;4.60;2.12;;;;;;;25.81;35.34;100489.13;4484758;32;34341;-71
2023/09/04 09:32:18;;;;;;;4.07;2.40;;;;;;;25.83;34.30;100476.91;4484700;32;34793;-67
2023/09/04 09:34:53;;;;;;;4.87;2.33;;;;;;;25.83;33.58;100479.62;4484719;32;33483;-68
2023/09/04 09:37:24;;;;;;;4.20;2.00;;;;;;;25.85;32.66;100484.91;4483319;32;33416;-67
2023/09/04 09:39:52;;;;;;;3.75;2.30;;;;;;;25.85;32.77;100485.72;4483394;32;34775;-69
2023/09/04 09:42:25;;;;;;;8.40;2.20;;;;;;;25.86;32.42;100484.66;4484642;32;33386;-67
2023/09/04 09:44:53;;;;;;;3.58;1.98;;;;;;;25.85;32.25;100473.97;4484625;32;33982;-67
2023/09/04 09:47:21;;;;;;;3.72;1.90;;;;;;;25.86;31.90;100481.09;4484555;32;34439;-67
2023/09/04 09:49:49;;;;;;;4.53;1.90;;;;;;;25.86;32.08;100481.09;4484778;32;34105;-67
2023/09/04 09:52:17;;;;;;;5.10;2.30;;;;;;;25.88;31.40;100484.41;4483275;32;34986;-66
2023/09/04 09:54:46;;;;;;;4.90;2.17;;;;;;;25.87;31.74;100480.03;4483127;32;33319;-68
2023/09/04 09:57:15;;;;;;;3.10;1.80;;;;;;;25.89;32.11;100483.38;4484636;32;33256;-67
2023/09/04 09:59:45;;;;;;;3.92;2.12;;;;;;;25.89;31.87;100480.66;4483443;32;33889;-67
2023/09/04 10:02:20;;;;;;;3.92;2.50;;;;;;;25.90;31.92;100474.13;4483411;32;34027;-68
2023/09/04 10:04:48;;;;;;;6.28;2.55;;;;;;;25.90;31.77;100468.66;4484316;32;34054;-67
2023/09/04 10:07:17;;;;;;;3.87;2.17;;;;;;;25.98;31.83;100473.00;4484486;32;33529;-68
2023/09/04 10:09:46;;;;;;;3.50;1.80;;;;;;;26.06;31.59;100472.66;4484386;32;33872;-68
2023/09/04 10:12:23;;;;;;;4.50;2.30;;;;;;;26.09;31.84;100472.22;4484491;32;34844;-67
2023/09/04 10:14:50;;;;;;;3.92;2.42;;;;;;;26.06;31.65;100468.03;4484019;32;34028;-67
2023/09/04 10:17:20;;;;;;;3.95;2.12;;;;;;;26.02;31.86;100466.84;4483109;32;34202;-67
2023/09/04 10:19:49;;;;;;;4.03;2.17;;;;;;;26.08;31.83;100457.72;4483204;32;33981;-67
2023/09/04 10:22:25;;;;;;;3.08;1.80;;;;;;;26.06;31.88;100468.03;4483297;32;33480;-67
2023/09/04 10:25:03;;;;;;;3.47;2.10;;;;;;;26.10;31.86;100471.97;4483052;32;34088;-68
2023/09/04 10:27:40;;;;;;;5.03;2.30;;;;;;;26.13;31.98;100473.44;4484261;32;33423;-67
2023/09/04 10:30:09;;;;;;;4.40;2.28;;;;;;;26.09;32.13;100466.75;4470099;32;33648;-67
2023/09/04 10:32:39;;;;;;;4.18;2.55;;;;;;;26.08;32.09;100468.66;4482140;32;33916;-74
2023/09/04 10:35:08;;;;;;;4.05;2.03;;;;;;;26.06;32.08;100468.03;4483323;32;33656;-70
2023/09/04 10:37:37;;;;;;;4.60;2.12;;;;;;;26.08;32.34;100462.34;4484451;32;33314;-73
2023/09/04 10:40:10;;;;;;;4.28;2.33;;;;;;;26.10;32.10;100463.78;4484395;32;34898;-73
2023/09/04 10:42:41;;;;;;;4.85;2.60;;;;;;;26.07;32.01;100457.94;4483515;32;33691;-69
2023/09/04 10:45:15;;;;;;;4.53;2.50;;;;;;;26.08;32.12;100465.09;4482877;32;34044;-67
2023/09/04 10:47:46;;;;;;;3.78;2.30;;;;;;;26.08;32.30;100457.72;4482473;32;32748;-68
2023/09/04 10:50:30;;;;;;;5.75;2.50;;;;;;;26.09;32.08;100469.47;4483630;32;33718;-67
2023/09/04 10:53:01;;;;;;;3.87;2.28;;;;;;;26.10;32.00;100465.69;4483067;32;33851;-69
2023/09/04 10:55:29;;;;;;;3.87;2.15;;;;;;;26.08;31.93;100467.81;4481227;32;33627;-73
2023/09/04 10:57:57;;;;;;;4.45;2.20;;;;;;;26.10;31.80;100480.19;4483685;32;33738;-68
2023/09/04 11:00:41;;;;;;;3.58;2.12;;;;;;;26.09;31.90;100464.00;4483229;32;33898;-73
2023/09/04 11:03:17;;;;;;;3.78;2.20;;;;;;;26.10;31.75;100457.47;4484208;32;33010;-71
2023/09/04 11:06:06;;;;;;;2.95;1.80;;;;;;;26.09;32.00;100455.81;4483873;32;33806;-71
2023/09/04 11:08:38;;;;;;;5.87;2.30;;;;;;;26.12;32.13;100452.62;4484263;32;33173;-71
2023/09/04 11:11:07;;;;;;;4.12;2.30;;;;;;;26.13;31.84;100455.13;4483990;32;33689;-72
2023/09/04 11:13:38;;;;;;;4.07;2.10;;;;;;;26.13;31.53;100446.09;4483835;32;35038;-72
2023/09/04 11:16:06;;;;;;;4.05;2.15;;;;;;;26.13;31.41;100441.44;4482198;32;33951;-72
2023/09/04 11:18:35;;;;;;;4.93;2.35;;;;;;;26.15;31.18;100443.94;4483812;32;33339;-72
2023/09/04 11:21:03;;;;;;;3.53;2.30;;;;;;;26.18;31.18;100452.53;4483904;32;34351;-70
2023/09/04 11:23:31;;;;;;;5.18;2.15;;;;;;;26.16;31.29;100449.22;4484042;32;34086;-70
2023/09/04 11:25:59;;;;;;;4.07;2.10;;;;;;;26.16;31.17;100441.00;4483102;32;34450;-72
2023/09/04 11:28:26;;;;;;;4.03;2.30;;;;;;;26.15;31.40;100452.16;4482315;32;34425;-69
2023/09/04 11:30:58;;;;;;;4.32;2.20;;;;;;;26.17;31.57;100447.31;4483227;32;33831;-72
2023/09/04 11:33:31;;;;;;;4.20;2.58;;;;;;;26.16;31.62;100449.22;4483459;32;34069;-70